Accueil
METAR-TAF:

METAR-TAF

Aéroports :

Aéroport de Bratsk

Bratsk, Russie

latitude: 56-22-15N, longitude: 101-41-55E, altitude: 490 m

Observation

Le bulletin a été fait il y a 29 minutes, à 20:00 UTC
Vent 4 kt de ouest/nord-ouest
Température 19°C
Humidité 78%
Pression 1002 hPa
Visibilité 10 km ou plus

METAR: UIBB 212000Z AUTO 30002MPS 9999 // NCD 19/15 Q1002 RMK QFE709/0945

Heure: 04:29 (20:29 UTC)

Prévision

Le bulletin a été fait il y a 3 heures et 29 minutes, à 17:00 UTC
Prévision valable du 21 à 18 UTC au 22 à 18 UTC
Vent 4 kt de nord/nord-est
Visibilité 10 km ou plus
Quelques nuages à une hauteur de 100 ft
Nuages fragmentés à une hauteur de 5000 ft, Cumulonimbus.
Temporairement
du 22 à 03 UTC au 22 à 15 UTC
Vent 14 kt de direction variable

TAF: UIBB 211700Z 2118/2218 03002MPS 9999 FEW001 BKN050CB TEMPO 2203/2215 VRB07MPS

Observations et prévisions météorologiques de plus de 4000 aéroports (messages METAR et TAF).

Les stations disponibles sont représentées par des disques jaunes et rouges sur la carte.

Passer la souris dessus pour voir le nom de la station.

Cliquer dessus pour voir les observations et prévisions météorologiques.

Pour changer de carte: cliquez sur les boutons verts avec une croix noire pour zoomer, sur le bouton vert avec un tiret pour effectuer un zoom arrière, ou sur les flèches vertes pour les cartes adjacentes.


METAR-TAF: